sensor_id;sensor_type;location;lat;lon;timestamp;temperature;humidity
67054;SHT31;53960;51.826;5.850;2023-09-18T00:00:20;19.44;95.46
67054;SHT31;53960;51.826;5.850;2023-09-18T00:02:47;19.47;95.53
67054;SHT31;53960;51.826;5.850;2023-09-18T00:05:12;19.47;95.41
67054;SHT31;53960;51.826;5.850;2023-09-18T00:07:39;19.44;95.47
67054;SHT31;53960;51.826;5.850;2023-09-18T00:10:05;19.44;95.66
67054;SHT31;53960;51.826;5.850;2023-09-18T00:12:30;19.48;95.43
67054;SHT31;53960;51.826;5.850;2023-09-18T00:14:55;19.52;95.37
67054;SHT31;53960;51.826;5.850;2023-09-18T00:17:20;19.54;95.44
67054;SHT31;53960;51.826;5.850;2023-09-18T00:19:49;19.49;95.42
67054;SHT31;53960;51.826;5.850;2023-09-18T00:22:14;19.52;95.60
67054;SHT31;53960;51.826;5.850;2023-09-18T00:24:39;19.52;95.61
67054;SHT31;53960;51.826;5.850;2023-09-18T00:27:05;19.55;95.59
67054;SHT31;53960;51.826;5.850;2023-09-18T00:29:30;19.52;95.57
67054;SHT31;53960;51.826;5.850;2023-09-18T00:31:55;19.65;95.35
67054;SHT31;53960;51.826;5.850;2023-09-18T00:34:21;19.65;95.30
67054;SHT31;53960;51.826;5.850;2023-09-18T00:36:46;19.65;95.29
67054;SHT31;53960;51.826;5.850;2023-09-18T00:39:11;19.59;95.34
67054;SHT31;53960;51.826;5.850;2023-09-18T00:41:37;19.61;95.47
67054;SHT31;53960;51.826;5.850;2023-09-18T00:44:03;19.62;95.36
67054;SHT31;53960;51.826;5.850;2023-09-18T00:46:30;19.61;95.26
67054;SHT31;53960;51.826;5.850;2023-09-18T00:48:56;19.62;95.25
67054;SHT31;53960;51.826;5.850;2023-09-18T00:51:22;19.71;95.28
67054;SHT31;53960;51.826;5.850;2023-09-18T00:53:48;19.71;95.20
67054;SHT31;53960;51.826;5.850;2023-09-18T00:56:14;19.73;95.10
67054;SHT31;53960;51.826;5.850;2023-09-18T00:58:40;19.79;94.99
67054;SHT31;53960;51.826;5.850;2023-09-18T01:01:05;19.82;95.06
67054;SHT31;53960;51.826;5.850;2023-09-18T01:03:31;19.89;94.71
67054;SHT31;53960;51.826;5.850;2023-09-18T01:05:56;19.87;94.58
67054;SHT31;53960;51.826;5.850;2023-09-18T01:08:22;19.87;94.53
67054;SHT31;53960;51.826;5.850;2023-09-18T01:13:51;20.01;94.19
67054;SHT31;53960;51.826;5.850;2023-09-18T01:16:25;20.01;94.28
67054;SHT31;53960;51.826;5.850;2023-09-18T01:18:51;20.03;94.14
67054;SHT31;53960;51.826;5.850;2023-09-18T01:21:19;20.05;94.00
67054;SHT31;53960;51.826;5.850;2023-09-18T01:23:45;20.08;93.83
67054;SHT31;53960;51.826;5.850;2023-09-18T01:26:11;20.09;93.79
67054;SHT31;53960;51.826;5.850;2023-09-18T01:28:36;20.10;93.75
67054;SHT31;53960;51.826;5.850;2023-09-18T01:31:01;20.09;93.68
67054;SHT31;53960;51.826;5.850;2023-09-18T01:33:28;20.12;93.34
67054;SHT31;53960;51.826;5.850;2023-09-18T01:35:55;20.16;93.24
67054;SHT31;53960;51.826;5.850;2023-09-18T01:38:23;20.19;93.08
67054;SHT31;53960;51.826;5.850;2023-09-18T01:40:49;20.21;92.94
67054;SHT31;53960;51.826;5.850;2023-09-18T01:43:15;20.23;92.85
67054;SHT31;53960;51.826;5.850;2023-09-18T01:45:41;20.26;92.73
67054;SHT31;53960;51.826;5.850;2023-09-18T01:48:07;20.27;92.62
67054;SHT31;53960;51.826;5.850;2023-09-18T01:50:33;20.37;92.04
67054;SHT31;53960;51.826;5.850;2023-09-18T01:52:59;20.41;91.90
67054;SHT31;53960;51.826;5.850;2023-09-18T01:55:24;20.41;91.93
67054;SHT31;53960;51.826;5.850;2023-09-18T01:57:49;20.37;91.98
67054;SHT31;53960;51.826;5.850;2023-09-18T02:00:15;20.40;91.72
67054;SHT31;53960;51.826;5.850;2023-09-18T02:02:40;20.50;91.34
67054;SHT31;53960;51.826;5.850;2023-09-18T02:05:06;20.47;91.42
67054;SHT31;53960;51.826;5.850;2023-09-18T02:07:31;20.52;91.25
67054;SHT31;53960;51.826;5.850;2023-09-18T02:09:57;20.54;91.00
67054;SHT31;53960;51.826;5.850;2023-09-18T02:12:22;20.54;90.90
67054;SHT31;53960;51.826;5.850;2023-09-18T02:14:48;20.60;90.89
67054;SHT31;53960;51.826;5.850;2023-09-18T02:17:13;20.52;90.95
67054;SHT31;53960;51.826;5.850;2023-09-18T02:19:38;20.63;90.68
67054;SHT31;53960;51.826;5.850;2023-09-18T02:22:04;20.55;90.96
67054;SHT31;53960;51.826;5.850;2023-09-18T02:24:29;20.50;91.28
67054;SHT31;53960;51.826;5.850;2023-09-18T02:26:55;20.52;91.08
67054;SHT31;53960;51.826;5.850;2023-09-18T02:29:20;20.51;90.97
67054;SHT31;53960;51.826;5.850;2023-09-18T02:31:45;20.45;91.23
67054;SHT31;53960;51.826;5.850;2023-09-18T02:34:11;20.50;91.06
67054;SHT31;53960;51.826;5.850;2023-09-18T02:36:36;20.48;91.15
67054;SHT31;53960;51.826;5.850;2023-09-18T02:39:02;20.51;90.98
67054;SHT31;53960;51.826;5.850;2023-09-18T02:41:27;20.44;91.29
67054;SHT31;53960;51.826;5.850;2023-09-18T02:43:53;20.39;91.42
67054;SHT31;53960;51.826;5.850;2023-09-18T02:46:18;20.36;91.83
67054;SHT31;53960;51.826;5.850;2023-09-18T02:48:43;20.33;91.94
67054;SHT31;53960;51.826;5.850;2023-09-18T02:51:09;20.33;91.96
67054;SHT31;53960;51.826;5.850;2023-09-18T02:53:35;20.34;91.96
67054;SHT31;53960;51.826;5.850;2023-09-18T02:56:00;20.29;91.98
67054;SHT31;53960;51.826;5.850;2023-09-18T02:58:26;20.30;92.02
67054;SHT31;53960;51.826;5.850;2023-09-18T03:00:55;20.21;92.21
67054;SHT31;53960;51.826;5.850;2023-09-18T03:03:20;20.17;92.53
67054;SHT31;53960;51.826;5.850;2023-09-18T03:05:46;20.13;92.49
67054;SHT31;53960;51.826;5.850;2023-09-18T03:08:12;20.19;92.46
67054;SHT31;53960;51.826;5.850;2023-09-18T03:10:41;20.10;92.59
67054;SHT31;53960;51.826;5.850;2023-09-18T03:13:08;20.12;92.73
67054;SHT31;53960;51.826;5.850;2023-09-18T03:15:34;20.09;92.83
67054;SHT31;53960;51.826;5.850;2023-09-18T03:18:00;20.13;92.76
67054;SHT31;53960;51.826;5.850;2023-09-18T03:20:26;20.13;92.66
67054;SHT31;53960;51.826;5.850;2023-09-18T03:22:54;20.12;92.75
67054;SHT31;53960;51.826;5.850;2023-09-18T03:25:20;20.06;92.93
67054;SHT31;53960;51.826;5.850;2023-09-18T03:27:47;20.09;92.84
67054;SHT31;53960;51.826;5.850;2023-09-18T03:30:12;20.12;92.91
67054;SHT31;53960;51.826;5.850;2023-09-18T03:32:40;20.10;92.89
67054;SHT31;53960;51.826;5.850;2023-09-18T03:35:06;20.06;93.10
67054;SHT31;53960;51.826;5.850;2023-09-18T03:37:33;20.08;93.04
67054;SHT31;53960;51.826;5.850;2023-09-18T03:39:58;20.13;92.91
67054;SHT31;53960;51.826;5.850;2023-09-18T03:42:23;20.13;92.88
67054;SHT31;53960;51.826;5.850;2023-09-18T03:44:49;20.12;92.99
67054;SHT31;53960;51.826;5.850;2023-09-18T03:47:14;20.12;93.22
67054;SHT31;53960;51.826;5.850;2023-09-18T03:49:40;20.12;93.34
67054;SHT31;53960;51.826;5.850;2023-09-18T03:52:06;20.16;93.34
67054;SHT31;53960;51.826;5.850;2023-09-18T03:54:31;20.16;93.33
67054;SHT31;53960;51.826;5.850;2023-09-18T03:56:57;20.17;93.26
67054;SHT31;53960;51.826;5.850;2023-09-18T03:59:22;20.13;93.52
67054;SHT31;53960;51.826;5.850;2023-09-18T04:01:47;20.13;93.48
67054;SHT31;53960;51.826;5.850;2023-09-18T04:04:13;20.14;93.33
67054;SHT31;53960;51.826;5.850;2023-09-18T04:06:43;20.08;93.39
67054;SHT31;53960;51.826;5.850;2023-09-18T04:09:09;20.09;93.44
67054;SHT31;53960;51.826;5.850;2023-09-18T04:11:35;20.12;93.37
67054;SHT31;53960;51.826;5.850;2023-09-18T04:14:01;20.10;93.06
67054;SHT31;53960;51.826;5.850;2023-09-18T04:16:26;20.12;93.04
67054;SHT31;53960;51.826;5.850;2023-09-18T04:19:02;20.05;93.24
67054;SHT31;53960;51.826;5.850;2023-09-18T04:21:27;20.05;93.16
67054;SHT31;53960;51.826;5.850;2023-09-18T04:23:54;20.05;93.12
67054;SHT31;53960;51.826;5.850;2023-09-18T04:26:23;20.05;93.18
67054;SHT31;53960;51.826;5.850;2023-09-18T04:28:48;20.08;93.04
67054;SHT31;53960;51.826;5.850;2023-09-18T04:31:14;20.05;92.88
67054;SHT31;53960;51.826;5.850;2023-09-18T04:33:39;20.13;92.75
67054;SHT31;53960;51.826;5.850;2023-09-18T04:36:05;20.09;92.75
67054;SHT31;53960;51.826;5.850;2023-09-18T04:38:30;20.06;92.75
67054;SHT31;53960;51.826;5.850;2023-09-18T04:41:01;20.01;93.01
67054;SHT31;53960;51.826;5.850;2023-09-18T04:43:27;20.01;93.09
67054;SHT31;53960;51.826;5.850;2023-09-18T04:45:55;19.99;93.10
67054;SHT31;53960;51.826;5.850;2023-09-18T04:48:20;20.01;93.16
67054;SHT31;53960;51.826;5.850;2023-09-18T04:50:45;20.00;93.30
67054;SHT31;53960;51.826;5.850;2023-09-18T04:53:12;19.99;93.31
67054;SHT31;53960;51.826;5.850;2023-09-18T04:55:37;20.03;93.11
67054;SHT31;53960;51.826;5.850;2023-09-18T04:58:03;20.00;93.36
67054;SHT31;53960;51.826;5.850;2023-09-18T05:00:30;20.03;93.22
67054;SHT31;53960;51.826;5.850;2023-09-18T05:02:59;20.06;93.27
67054;SHT31;53960;51.826;5.850;2023-09-18T05:05:27;20.06;93.29
67054;SHT31;53960;51.826;5.850;2023-09-18T05:07:52;20.03;93.49
67054;SHT31;53960;51.826;5.850;2023-09-18T05:10:18;20.00;93.56
67054;SHT31;53960;51.826;5.850;2023-09-18T05:12:43;19.97;93.78
67054;SHT31;53960;51.826;5.850;2023-09-18T05:15:09;19.97;93.93
67054;SHT31;53960;51.826;5.850;2023-09-18T05:17:47;19.97;93.98
67054;SHT31;53960;51.826;5.850;2023-09-18T05:20:16;20.00;93.86
67054;SHT31;53960;51.826;5.850;2023-09-18T05:22:42;19.96;94.05
67054;SHT31;53960;51.826;5.850;2023-09-18T05:25:11;19.93;94.28
67054;SHT31;53960;51.826;5.850;2023-09-18T05:27:37;19.89;94.47
67054;SHT31;53960;51.826;5.850;2023-09-18T05:32:35;19.92;94.38
67054;SHT31;53960;51.826;5.850;2023-09-18T05:35:00;19.87;94.57
67054;SHT31;53960;51.826;5.850;2023-09-18T05:37:30;19.92;94.44
67054;SHT31;53960;51.826;5.850;2023-09-18T05:39:55;19.89;94.54
67054;SHT31;53960;51.826;5.850;2023-09-18T05:42:21;19.86;94.76
67054;SHT31;53960;51.826;5.850;2023-09-18T05:44:46;19.86;94.72
67054;SHT31;53960;51.826;5.850;2023-09-18T05:47:12;19.87;94.77
67054;SHT31;53960;51.826;5.850;2023-09-18T05:49:38;19.90;94.68
67054;SHT31;53960;51.826;5.850;2023-09-18T05:52:03;19.90;94.62
67054;SHT31;53960;51.826;5.850;2023-09-18T05:54:28;19.97;94.48
67054;SHT31;53960;51.826;5.850;2023-09-18T05:56:54;19.99;94.46
67054;SHT31;53960;51.826;5.850;2023-09-18T05:59:19;20.00;94.45
67054;SHT31;53960;51.826;5.850;2023-09-18T06:01:45;19.96;94.68
67054;SHT31;53960;51.826;5.850;2023-09-18T06:04:10;19.93;94.83
67054;SHT31;53960;51.826;5.850;2023-09-18T06:06:38;19.92;94.86
67054;SHT31;53960;51.826;5.850;2023-09-18T06:09:03;19.93;94.85
67054;SHT31;53960;51.826;5.850;2023-09-18T06:11:28;19.90;95.01
67054;SHT31;53960;51.826;5.850;2023-09-18T06:13:54;19.89;95.03
67054;SHT31;53960;51.826;5.850;2023-09-18T06:16:19;19.97;94.56
67054;SHT31;53960;51.826;5.850;2023-09-18T06:18:44;19.96;94.36
67054;SHT31;53960;51.826;5.850;2023-09-18T06:21:10;19.96;94.30
67054;SHT31;53960;51.826;5.850;2023-09-18T06:23:35;20.03;94.07
67054;SHT31;53960;51.826;5.850;2023-09-18T06:26:01;20.05;93.67
67054;SHT31;53960;51.826;5.850;2023-09-18T06:28:26;20.06;93.79
67054;SHT31;53960;51.826;5.850;2023-09-18T06:30:52;20.09;93.57
67054;SHT31;53960;51.826;5.850;2023-09-18T06:33:19;20.09;93.30
67054;SHT31;53960;51.826;5.850;2023-09-18T06:35:44;20.05;93.16
67054;SHT31;53960;51.826;5.850;2023-09-18T06:38:10;20.03;93.34
67054;SHT31;53960;51.826;5.850;2023-09-18T06:40:38;20.05;93.15
67054;SHT31;53960;51.826;5.850;2023-09-18T06:43:04;20.08;92.69
67054;SHT31;53960;51.826;5.850;2023-09-18T06:45:30;20.09;92.32
67054;SHT31;53960;51.826;5.850;2023-09-18T06:47:56;20.13;92.06
67054;SHT31;53960;51.826;5.850;2023-09-18T06:50:21;20.10;92.05
67054;SHT31;53960;51.826;5.850;2023-09-18T06:52:46;20.10;91.78
67054;SHT31;53960;51.826;5.850;2023-09-18T06:55:12;20.12;91.47
67054;SHT31;53960;51.826;5.850;2023-09-18T06:57:37;20.17;91.35
67054;SHT31;53960;51.826;5.850;2023-09-18T07:00:04;20.16;91.49
67054;SHT31;53960;51.826;5.850;2023-09-18T07:02:30;20.16;91.14
67054;SHT31;53960;51.826;5.850;2023-09-18T07:04:55;20.17;90.94
67054;SHT31;53960;51.826;5.850;2023-09-18T07:07:21;20.26;90.65
67054;SHT31;53960;51.826;5.850;2023-09-18T07:09:51;20.27;90.34
67054;SHT31;53960;51.826;5.850;2023-09-18T07:12:16;20.24;90.35
67054;SHT31;53960;51.826;5.850;2023-09-18T07:14:47;20.24;90.14
67054;SHT31;53960;51.826;5.850;2023-09-18T07:17:12;20.26;90.30
67054;SHT31;53960;51.826;5.850;2023-09-18T07:19:38;20.31;90.22
67054;SHT31;53960;51.826;5.850;2023-09-18T07:22:04;20.34;90.19
67054;SHT31;53960;51.826;5.850;2023-09-18T07:24:29;20.37;90.18
67054;SHT31;53960;51.826;5.850;2023-09-18T07:26:54;20.39;90.08
67054;SHT31;53960;51.826;5.850;2023-09-18T07:29:20;20.43;89.77
67054;SHT31;53960;51.826;5.850;2023-09-18T07:31:46;20.44;89.57
67054;SHT31;53960;51.826;5.850;2023-09-18T07:34:13;20.47;89.32
67054;SHT31;53960;51.826;5.850;2023-09-18T07:36:39;20.41;89.84
67054;SHT31;53960;51.826;5.850;2023-09-18T07:39:04;20.40;89.75
67054;SHT31;53960;51.826;5.850;2023-09-18T07:41:31;20.37;89.66
67054;SHT31;53960;51.826;5.850;2023-09-18T07:43:56;20.34;89.69
67054;SHT31;53960;51.826;5.850;2023-09-18T07:46:23;20.37;89.69
67054;SHT31;53960;51.826;5.850;2023-09-18T07:48:49;20.41;89.36
67054;SHT31;53960;51.826;5.850;2023-09-18T07:51:14;20.37;89.45
67054;SHT31;53960;51.826;5.850;2023-09-18T07:53:41;20.41;89.44
67054;SHT31;53960;51.826;5.850;2023-09-18T07:56:07;20.45;89.19
67054;SHT31;53960;51.826;5.850;2023-09-18T07:58:32;20.47;89.20
67054;SHT31;53960;51.826;5.850;2023-09-18T08:00:59;20.40;89.47
67054;SHT31;53960;51.826;5.850;2023-09-18T08:03:27;20.43;89.09
67054;SHT31;53960;51.826;5.850;2023-09-18T08:05:53;20.50;89.01
67054;SHT31;53960;51.826;5.850;2023-09-18T08:08:20;20.64;88.45
67054;SHT31;53960;51.826;5.850;2023-09-18T08:10:46;20.69;88.13
67054;SHT31;53960;51.826;5.850;2023-09-18T08:13:12;20.67;88.16
67054;SHT31;53960;51.826;5.850;2023-09-18T08:15:38;20.71;87.88
67054;SHT31;53960;51.826;5.850;2023-09-18T08:18:03;20.71;87.90
67054;SHT31;53960;51.826;5.850;2023-09-18T08:20:29;20.72;88.12
67054;SHT31;53960;51.826;5.850;2023-09-18T08:22:54;20.68;87.90
67054;SHT31;53960;51.826;5.850;2023-09-18T08:25:19;20.69;88.12
67054;SHT31;53960;51.826;5.850;2023-09-18T08:27:45;20.71;88.57
67054;SHT31;53960;51.826;5.850;2023-09-18T08:30:12;20.71;88.31
67054;SHT31;53960;51.826;5.850;2023-09-18T08:32:38;20.74;88.06
67054;SHT31;53960;51.826;5.850;2023-09-18T08:35:05;20.75;88.35
67054;SHT31;53960;51.826;5.850;2023-09-18T08:37:30;20.75;88.31
67054;SHT31;53960;51.826;5.850;2023-09-18T08:39:56;20.82;88.08
67054;SHT31;53960;51.826;5.850;2023-09-18T08:42:22;20.88;87.61
67054;SHT31;53960;51.826;5.850;2023-09-18T08:44:50;20.91;87.03
67054;SHT31;53960;51.826;5.850;2023-09-18T08:47:17;20.91;87.28
67054;SHT31;53960;51.826;5.850;2023-09-18T08:49:44;20.91;87.32
67054;SHT31;53960;51.826;5.850;2023-09-18T08:52:11;20.91;87.14
67054;SHT31;53960;51.826;5.850;2023-09-18T08:54:38;20.91;87.33
67054;SHT31;53960;51.826;5.850;2023-09-18T08:57:04;20.94;87.04
67054;SHT31;53960;51.826;5.850;2023-09-18T08:59:33;20.96;86.81
67054;SHT31;53960;51.826;5.850;2023-09-18T09:02:00;20.89;86.99
67054;SHT31;53960;51.826;5.850;2023-09-18T09:04:25;20.94;86.98
67054;SHT31;53960;51.826;5.850;2023-09-18T09:06:51;20.95;86.39
67054;SHT31;53960;51.826;5.850;2023-09-18T09:09:16;20.96;86.48
67054;SHT31;53960;51.826;5.850;2023-09-18T09:11:50;21.02;86.71
67054;SHT31;53960;51.826;5.850;2023-09-18T09:14:16;21.09;86.75
67054;SHT31;53960;51.826;5.850;2023-09-18T09:16:50;21.02;86.39
67054;SHT31;53960;51.826;5.850;2023-09-18T09:19:17;21.15;85.51
67054;SHT31;53960;51.826;5.850;2023-09-18T09:21:43;21.13;85.69
67054;SHT31;53960;51.826;5.850;2023-09-18T09:24:10;21.08;86.31
67054;SHT31;53960;51.826;5.850;2023-09-18T09:26:40;21.13;87.09
67054;SHT31;53960;51.826;5.850;2023-09-18T09:29:16;21.22;86.44
67054;SHT31;53960;51.826;5.850;2023-09-18T09:31:43;21.29;85.76
67054;SHT31;53960;51.826;5.850;2023-09-18T09:34:09;21.30;85.47
67054;SHT31;53960;51.826;5.850;2023-09-18T09:36:35;21.32;85.94
67054;SHT31;53960;51.826;5.850;2023-09-18T09:39:00;21.36;85.35
67054;SHT31;53960;51.826;5.850;2023-09-18T09:41:27;21.43;85.59
67054;SHT31;53960;51.826;5.850;2023-09-18T09:43:55;21.47;85.94
67054;SHT31;53960;51.826;5.850;2023-09-18T09:46:21;21.54;85.22
67054;SHT31;53960;51.826;5.850;2023-09-18T09:49:06;21.63;84.51
67054;SHT31;53960;51.826;5.850;2023-09-18T09:51:32;21.67;84.80
67054;SHT31;53960;51.826;5.850;2023-09-18T09:53:58;21.70;84.24
67054;SHT31;53960;51.826;5.850;2023-09-18T09:56:45;21.71;84.28
67054;SHT31;53960;51.826;5.850;2023-09-18T09:59:12;21.78;83.92
67054;SHT31;53960;51.826;5.850;2023-09-18T10:01:39;21.86;83.22
67054;SHT31;53960;51.826;5.850;2023-09-18T10:04:13;21.86;83.39
67054;SHT31;53960;51.826;5.850;2023-09-18T10:06:42;22.00;83.11
67054;SHT31;53960;51.826;5.850;2023-09-18T10:09:08;22.07;83.01
67054;SHT31;53960;51.826;5.850;2023-09-18T10:11:40;22.08;82.35
67054;SHT31;53960;51.826;5.850;2023-09-18T10:14:12;22.11;82.44
67054;SHT31;53960;51.826;5.850;2023-09-18T10:16:50;22.14;82.47
67054;SHT31;53960;51.826;5.850;2023-09-18T10:19:30;22.21;82.05
67054;SHT31;53960;51.826;5.850;2023-09-18T10:22:30;22.25;82.34
67054;SHT31;53960;51.826;5.850;2023-09-18T10:25:10;22.28;82.05
67054;SHT31;53960;51.826;5.850;2023-09-18T10:27:39;22.31;81.82
67054;SHT31;53960;51.826;5.850;2023-09-18T10:30:06;22.25;81.65
67054;SHT31;53960;51.826;5.850;2023-09-18T10:32:38;22.34;81.01
67054;SHT31;53960;51.826;5.850;2023-09-18T10:35:06;22.36;80.06
67054;SHT31;53960;51.826;5.850;2023-09-18T10:37:32;22.41;79.91
67054;SHT31;53960;51.826;5.850;2023-09-18T10:40:00;22.46;79.84
67054;SHT31;53960;51.826;5.850;2023-09-18T10:42:26;22.41;80.29
67054;SHT31;53960;51.826;5.850;2023-09-18T10:44:52;22.45;80.16
67054;SHT31;53960;51.826;5.850;2023-09-18T10:47:18;22.41;79.75
67054;SHT31;53960;51.826;5.850;2023-09-18T10:49:45;22.42;80.20
67054;SHT31;53960;51.826;5.850;2023-09-18T10:52:11;22.45;80.14
67054;SHT31;53960;51.826;5.850;2023-09-18T10:54:38;22.52;79.99
67054;SHT31;53960;51.826;5.850;2023-09-18T10:57:04;22.60;79.74
67054;SHT31;53960;51.826;5.850;2023-09-18T10:59:30;22.77;80.58
67054;SHT31;53960;51.826;5.850;2023-09-18T11:01:58;22.82;80.17
67054;SHT31;53960;51.826;5.850;2023-09-18T11:04:30;22.86;78.95
67054;SHT31;53960;51.826;5.850;2023-09-18T11:09:28;22.94;79.47
67054;SHT31;53960;51.826;5.850;2023-09-18T11:12:02;23.00;80.10
67054;SHT31;53960;51.826;5.850;2023-09-18T11:14:56;23.15;79.35
67054;SHT31;53960;51.826;5.850;2023-09-18T11:17:38;23.27;79.49
67054;SHT31;53960;51.826;5.850;2023-09-18T11:20:23;23.13;79.87
67054;SHT31;53960;51.826;5.850;2023-09-18T11:22:59;23.03;78.07
67054;SHT31;53960;51.826;5.850;2023-09-18T11:25:38;23.11;78.48
67054;SHT31;53960;51.826;5.850;2023-09-18T11:28:07;23.13;78.58
67054;SHT31;53960;51.826;5.850;2023-09-18T11:30:36;23.07;78.87
67054;SHT31;53960;51.826;5.850;2023-09-18T11:33:05;22.94;79.01
67054;SHT31;53960;51.826;5.850;2023-09-18T11:35:35;22.76;79.45
67054;SHT31;53960;51.826;5.850;2023-09-18T11:38:05;22.63;79.77
67054;SHT31;53960;51.826;5.850;2023-09-18T11:40:32;22.46;80.26
67054;SHT31;53960;51.826;5.850;2023-09-18T11:45:55;23.02;79.80
67054;SHT31;53960;51.826;5.850;2023-09-18T11:48:22;23.02;78.11
67054;SHT31;53960;51.826;5.850;2023-09-18T11:50:51;23.37;77.11
67054;SHT31;53960;51.826;5.850;2023-09-18T11:53:17;23.54;76.17
67054;SHT31;53960;51.826;5.850;2023-09-18T11:55:44;23.41;75.86
67054;SHT31;53960;51.826;5.850;2023-09-18T11:58:09;23.52;74.94
67054;SHT31;53960;51.826;5.850;2023-09-18T12:00:35;23.45;75.79
67054;SHT31;53960;51.826;5.850;2023-09-18T12:03:15;23.08;76.53
67054;SHT31;53960;51.826;5.850;2023-09-18T12:05:54;22.93;77.10
67054;SHT31;53960;51.826;5.850;2023-09-18T12:08:20;22.82;77.41
67054;SHT31;53960;51.826;5.850;2023-09-18T12:10:49;22.92;77.73
67054;SHT31;53960;51.826;5.850;2023-09-18T12:13:15;22.86;78.17
67054;SHT31;53960;51.826;5.850;2023-09-18T12:15:40;23.08;77.39
67054;SHT31;53960;51.826;5.850;2023-09-18T12:18:09;23.02;77.55
67054;SHT31;53960;51.826;5.850;2023-09-18T12:20:37;22.89;78.74
67054;SHT31;53960;51.826;5.850;2023-09-18T12:23:02;22.96;78.12
67054;SHT31;53960;51.826;5.850;2023-09-18T12:25:28;22.86;78.15
67054;SHT31;53960;51.826;5.850;2023-09-18T12:27:53;22.99;77.85
67054;SHT31;53960;51.826;5.850;2023-09-18T12:30:20;23.25;77.49
67054;SHT31;53960;51.826;5.850;2023-09-18T12:32:46;23.43;77.29
67054;SHT31;53960;51.826;5.850;2023-09-18T12:35:15;23.51;76.71
67054;SHT31;53960;51.826;5.850;2023-09-18T12:37:41;23.61;76.59
67054;SHT31;53960;51.826;5.850;2023-09-18T12:40:20;23.81;75.78
67054;SHT31;53960;51.826;5.850;2023-09-18T12:42:47;23.69;77.12
67054;SHT31;53960;51.826;5.850;2023-09-18T12:45:12;23.71;76.17
67054;SHT31;53960;51.826;5.850;2023-09-18T12:47:38;23.71;75.32
67054;SHT31;53960;51.826;5.850;2023-09-18T12:50:05;23.76;75.04
67054;SHT31;53960;51.826;5.850;2023-09-18T12:52:32;23.73;73.27
67054;SHT31;53960;51.826;5.850;2023-09-18T12:54:58;23.54;74.97
67054;SHT31;53960;51.826;5.850;2023-09-18T12:57:25;23.78;73.31
67054;SHT31;53960;51.826;5.850;2023-09-18T12:59:50;23.88;72.84
67054;SHT31;53960;51.826;5.850;2023-09-18T13:02:17;23.88;71.94
67054;SHT31;53960;51.826;5.850;2023-09-18T13:04:51;23.98;71.16
67054;SHT31;53960;51.826;5.850;2023-09-18T13:07:17;24.12;71.76
67054;SHT31;53960;51.826;5.850;2023-09-18T13:09:42;24.22;71.58
67054;SHT31;53960;51.826;5.850;2023-09-18T13:12:09;24.27;71.72
67054;SHT31;53960;51.826;5.850;2023-09-18T13:15:00;24.29;71.62
67054;SHT31;53960;51.826;5.850;2023-09-18T13:17:39;24.23;71.28
67054;SHT31;53960;51.826;5.850;2023-09-18T13:20:16;24.08;71.37
67054;SHT31;53960;51.826;5.850;2023-09-18T13:22:48;24.17;72.91
67054;SHT31;53960;51.826;5.850;2023-09-18T13:25:19;24.20;70.56
67054;SHT31;53960;51.826;5.850;2023-09-18T13:27:46;24.22;72.27
67054;SHT31;53960;51.826;5.850;2023-09-18T13:30:12;24.16;71.46
67054;SHT31;53960;51.826;5.850;2023-09-18T13:32:43;24.24;70.75
67054;SHT31;53960;51.826;5.850;2023-09-18T13:35:09;24.14;71.55
67054;SHT31;53960;51.826;5.850;2023-09-18T13:37:38;23.78;72.26
67054;SHT31;53960;51.826;5.850;2023-09-18T13:40:10;24.08;72.37
67054;SHT31;53960;51.826;5.850;2023-09-18T13:42:36;24.13;72.30
67054;SHT31;53960;51.826;5.850;2023-09-18T13:45:04;24.22;71.01
67054;SHT31;53960;51.826;5.850;2023-09-18T13:47:32;24.32;70.94
67054;SHT31;53960;51.826;5.850;2023-09-18T13:49:59;24.39;71.04
67054;SHT31;53960;51.826;5.850;2023-09-18T13:52:29;24.43;70.30
67054;SHT31;53960;51.826;5.850;2023-09-18T13:54:55;24.47;70.84
67054;SHT31;53960;51.826;5.850;2023-09-18T13:57:21;24.44;69.49
67054;SHT31;53960;51.826;5.850;2023-09-18T13:59:47;24.44;70.77
67054;SHT31;53960;51.826;5.850;2023-09-18T14:02:14;24.37;69.77
67054;SHT31;53960;51.826;5.850;2023-09-18T14:04:40;24.39;69.79
67054;SHT31;53960;51.826;5.850;2023-09-18T14:07:06;24.22;69.66
67054;SHT31;53960;51.826;5.850;2023-09-18T14:09:32;24.20;69.21
67054;SHT31;53960;51.826;5.850;2023-09-18T14:11:57;24.12;69.67
67054;SHT31;53960;51.826;5.850;2023-09-18T14:14:22;24.16;70.47
67054;SHT31;53960;51.826;5.850;2023-09-18T14:16:48;24.16;70.37
67054;SHT31;53960;51.826;5.850;2023-09-18T14:19:16;24.16;71.07
67054;SHT31;53960;51.826;5.850;2023-09-18T14:21:41;24.16;70.55
67054;SHT31;53960;51.826;5.850;2023-09-18T14:24:07;24.14;70.63
67054;SHT31;53960;51.826;5.850;2023-09-18T14:26:33;24.19;70.89
67054;SHT31;53960;51.826;5.850;2023-09-18T14:29:00;24.20;70.19
67054;SHT31;53960;51.826;5.850;2023-09-18T14:31:26;24.19;70.97
67054;SHT31;53960;51.826;5.850;2023-09-18T14:33:52;24.02;71.10
67054;SHT31;53960;51.826;5.850;2023-09-18T14:36:17;23.90;70.42
67054;SHT31;53960;51.826;5.850;2023-09-18T14:38:43;23.89;70.82
67054;SHT31;53960;51.826;5.850;2023-09-18T14:41:08;23.96;71.17
67054;SHT31;53960;51.826;5.850;2023-09-18T14:43:34;24.14;71.17
67054;SHT31;53960;51.826;5.850;2023-09-18T14:46:00;24.17;71.04
67054;SHT31;53960;51.826;5.850;2023-09-18T14:48:25;24.10;71.24
67054;SHT31;53960;51.826;5.850;2023-09-18T14:50:54;23.90;71.97
67054;SHT31;53960;51.826;5.850;2023-09-18T14:53:20;23.73;71.79
67054;SHT31;53960;51.826;5.850;2023-09-18T14:55:46;23.73;70.90
67054;SHT31;53960;51.826;5.850;2023-09-18T14:58:11;23.66;71.19
67054;SHT31;53960;51.826;5.850;2023-09-18T15:00:37;23.58;70.78
67054;SHT31;53960;51.826;5.850;2023-09-18T15:03:02;23.47;71.47
67054;SHT31;53960;51.826;5.850;2023-09-18T15:05:28;23.48;71.27
67054;SHT31;53960;51.826;5.850;2023-09-18T15:07:53;23.45;70.79
67054;SHT31;53960;51.826;5.850;2023-09-18T15:10:19;23.44;69.84
67054;SHT31;53960;51.826;5.850;2023-09-18T15:12:44;23.43;70.15
67054;SHT31;53960;51.826;5.850;2023-09-18T15:15:10;23.37;70.20
67054;SHT31;53960;51.826;5.850;2023-09-18T15:17:35;23.41;69.54
67054;SHT31;53960;51.826;5.850;2023-09-18T15:20:04;23.28;69.71
67054;SHT31;53960;51.826;5.850;2023-09-18T15:22:30;23.27;69.59
67054;SHT31;53960;51.826;5.850;2023-09-18T15:24:56;23.23;70.04
67054;SHT31;53960;51.826;5.850;2023-09-18T15:27:21;23.18;69.52
67054;SHT31;53960;51.826;5.850;2023-09-18T15:29:47;23.13;70.58
67054;SHT31;53960;51.826;5.850;2023-09-18T15:32:12;23.00;70.44
67054;SHT31;53960;51.826;5.850;2023-09-18T15:34:37;22.97;70.71
67054;SHT31;53960;51.826;5.850;2023-09-18T15:37:03;22.89;71.20
67054;SHT31;53960;51.826;5.850;2023-09-18T15:39:30;22.59;71.59